ESNS Airport Information

Runway Information
Runway 10 Length 6890 ft width 148 ft
Elevation 157 ft Threshold 0 ft Heading 106
Runway 28 Length 6890 ft Width 148 ft
Elevation 125 ft Threshold 0 ft Heading 286
Airport Frequencies
Type TWR Name TWR Frequency 122.05 MHZ
Airport Navaids
Type VOR-DME Name Skelleftea Frequency 113400 KHZ
Airport Weather Information & NOTAM
ADDS - METARS form results

(0823 UTC 18 July 2018)
 
METAR text: ESNS 180750Z 09005KT CAVOK 27/17 Q1018
Conditions at: ESNS (SKELLEFTEA AIRPO, SE) observed 0750 UTC 18 July 2018
Temperature: 27.0°C (81°F)
Dewpoint: 17.0°C (63°F) [RH = 54%]
Pressure (altimeter): 30.06 inches Hg (1018.0 mb)
Winds: from the E (90 degrees) at 6 MPH (5 knots; 2.6 m/s)
Visibility: 6 or more miles (10+ km)
Ceiling: ceiling and visibility are OK
Clouds: unknown
Weather: no significant weather observed at this time